Time;durP1;ratioP1;P1;durP2;ratioP2;P2;SDS_P1;SDS_P2;PMS_P1;PMS_P2;Temp;Humidity;BMP_temperature;BMP_pressure;BME280_temperature;BME280_humidity;BME280_pressure;Samples;Min_cycle;Max_cycle;Signal;HPM_P1;HPM_P2
2021/12/23 00:01:39;;;;;;;36.00;16.13;;;;;;;20.60;45.63;100288.59;4933619;29;20028;-69
2021/12/23 00:04:05;;;;;;;35.90;15.48;;;;;;;20.72;45.35;100282.69;4932837;29;20083;-69
2021/12/23 00:06:31;;;;;;;36.80;14.13;;;;;;;20.71;45.50;100281.09;4932810;29;20059;-69
2021/12/23 00:08:59;;;;;;;31.27;15.15;;;;;;;20.69;45.64;100270.38;4932694;29;20066;-69
2021/12/23 00:11:25;;;;;;;25.40;13.48;;;;;;;20.80;45.33;100267.63;4932525;29;20048;-71
2021/12/23 00:14:01;;;;;;;30.20;14.82;;;;;;;20.69;45.71;100270.38;4933930;29;20028;-70
2021/12/23 00:16:47;;;;;;;28.95;12.85;;;;;;;20.76;45.64;100266.81;4933901;29;20028;-69
2021/12/23 00:24:38;;;;;;;25.92;10.65;;;;;;;20.74;45.89;100263.66;4934239;29;20042;-70
2021/12/23 00:27:05;;;;;;;25.13;11.13;;;;;;;20.74;45.93;100253.34;4933735;29;20032;-69
2021/12/23 00:29:30;;;;;;;25.17;10.20;;;;;;;20.94;45.45;100253.78;4933823;29;20390;-69
2021/12/23 00:31:56;;;;;;;19.52;9.50;;;;;;;20.84;45.86;100251.75;4933698;29;20019;-70
2021/12/23 00:34:22;;;;;;;23.00;11.13;;;;;;;20.76;46.02;100241.84;4933724;29;20083;-69
2021/12/23 00:36:48;;;;;;;21.20;8.68;;;;;;;20.89;45.60;100243.06;4933734;29;20024;-69
2021/12/23 00:39:15;;;;;;;20.65;10.18;;;;;;;20.92;45.65;100231.16;4933670;29;20030;-69
2021/12/23 00:41:45;;;;;;;17.23;8.13;;;;;;;20.96;45.53;100234.72;4933941;29;20080;-69
2021/12/23 00:44:12;;;;;;;15.60;9.38;;;;;;;20.90;45.65;100230.75;4933600;29;20450;-69
2021/12/23 00:46:38;;;;;;;24.90;10.45;;;;;;;20.69;46.32;100233.50;4933739;29;20054;-72
2021/12/23 00:49:05;;;;;;;21.92;9.70;;;;;;;20.90;45.73;100227.19;4935796;29;20554;-70
2021/12/23 00:51:32;;;;;;;18.77;10.55;;;;;;;21.01;45.58;100214.91;4936047;29;20049;-70
2021/12/23 00:54:04;;;;;;;27.88;11.55;;;;;;;20.91;45.76;100212.91;4935755;29;20534;-70
2021/12/23 00:56:32;;;;;;;31.25;11.23;;;;;;;21.09;45.36;100206.56;4937384;29;20035;-69
2021/12/23 00:58:58;;;;;;;29.75;10.15;;;;;;;21.04;45.38;100205.78;4936610;29;20019;-70
2021/12/23 01:01:23;;;;;;;30.63;12.10;;;;;;;21.10;45.15;100203.41;4936834;29;20034;-69
2021/12/23 01:03:49;;;;;;;29.35;11.35;;;;;;;21.00;45.45;100199.41;4936830;29;20039;-70
2021/12/23 01:06:15;;;;;;;29.63;10.05;;;;;;;21.03;45.47;100197.84;4936752;29;20035;-69
2021/12/23 01:08:40;;;;;;;44.00;13.23;;;;;;;20.82;46.05;100204.16;4936848;29;20143;-70
2021/12/23 01:11:08;;;;;;;28.75;11.80;;;;;;;21.02;45.36;100196.25;4936570;29;20055;-69
2021/12/23 01:13:33;;;;;;;28.45;11.50;;;;;;;20.91;45.78;100193.47;4936909;29;20158;-69
2021/12/23 01:18:53;;;;;;;21.42;10.00;;;;;;;20.90;45.80;100185.53;4936858;29;20102;-73
2021/12/23 01:21:18;;;;;;;30.13;10.27;;;;;;;21.13;45.07;100185.91;4936956;29;20482;-69
2021/12/23 01:23:51;;;;;;;19.70;9.60;;;;;;;21.07;45.35;100184.72;4936512;29;20038;-69
2021/12/23 01:26:20;;;;;;;22.85;10.23;;;;;;;21.16;45.04;100168.47;4936455;29;20036;-69
2021/12/23 01:28:49;;;;;;;25.13;9.77;;;;;;;21.16;45.21;100176.81;4936650;29;20042;-70
2021/12/23 01:31:15;;;;;;;31.15;10.82;;;;;;;20.98;45.72;100179.56;4936297;29;20035;-69
2021/12/23 01:33:40;;;;;;;26.15;11.80;;;;;;;21.12;45.31;100169.66;4936202;29;20047;-70
2021/12/23 01:36:06;;;;;;;28.33;10.95;;;;;;;21.10;45.35;100164.50;4936249;29;20043;-69
2021/12/23 01:38:31;;;;;;;41.67;14.05;;;;;;;21.06;45.44;100158.16;4936231;29;20119;-69
2021/12/23 01:40:57;;;;;;;48.25;14.77;;;;;;;21.02;45.56;100163.72;4936277;29;20118;-69
2021/12/23 01:43:23;;;;;;;32.97;12.32;;;;;;;21.00;45.74;100154.97;4936102;29;20368;-69
2021/12/23 01:45:50;;;;;;;35.28;14.10;;;;;;;21.06;45.51;100153.38;4936180;29;20035;-69
2021/12/23 01:48:18;;;;;;;33.97;12.35;;;;;;;21.11;45.60;100156.97;4935990;29;20034;-78
2021/12/23 01:50:44;;;;;;;40.88;14.15;;;;;;;21.20;45.35;100144.25;4936274;29;20151;-69
2021/12/23 01:53:10;;;;;;;33.10;12.32;;;;;;;21.10;45.61;100142.28;4935967;29;20126;-69
2021/12/23 01:55:38;;;;;;;30.38;12.00;;;;;;;21.17;45.30;100139.50;4935760;29;20114;-70
2021/12/23 01:58:05;;;;;;;30.45;12.02;;;;;;;21.08;45.69;100141.06;4935144;29;20650;-70
2021/12/23 02:00:33;;;;;;;34.88;12.38;;;;;;;21.01;45.77;100139.91;4934613;29;20032;-70
2021/12/23 02:02:59;;;;;;;32.17;11.40;;;;;;;21.11;45.75;100134.75;4934586;29;20031;-70
2021/12/23 02:05:25;;;;;;;38.35;11.85;;;;;;;21.14;45.36;100128.38;4934568;29;20387;-70
2021/12/23 02:07:51;;;;;;;46.72;12.57;;;;;;;21.19;45.44;100130.75;4934566;29;20043;-69
2021/12/23 02:10:18;;;;;;;28.77;12.75;;;;;;;21.05;45.80;100124.03;4935699;29;20518;-70
2021/12/23 02:12:45;;;;;;;32.08;14.13;;;;;;;21.09;45.69;100123.25;4935552;29;20044;-69
2021/12/23 02:15:12;;;;;;;37.15;12.05;;;;;;;21.00;45.99;100123.63;4935460;29;20042;-70
2021/12/23 02:17:38;;;;;;;36.63;12.90;;;;;;;20.98;46.08;100121.25;4935653;29;20569;-69
2021/12/23 02:20:09;;;;;;;37.20;12.10;;;;;;;21.11;45.64;100116.09;4935502;29;20402;-69
2021/12/23 02:22:35;;;;;;;39.67;12.88;;;;;;;21.04;45.84;100111.34;4935397;29;20036;-70
2021/12/23 02:25:00;;;;;;;26.52;11.40;;;;;;;21.13;45.54;100102.59;4935534;29;20122;-69
2021/12/23 02:27:26;;;;;;;39.65;12.95;;;;;;;21.18;45.68;100104.19;4935337;29;20068;-69
2021/12/23 02:29:52;;;;;;;31.05;11.48;;;;;;;20.98;46.15;100099.03;4935568;29;20032;-69
2021/12/23 02:32:17;;;;;;;27.13;11.48;;;;;;;21.08;45.97;100093.88;4935174;29;20537;-69
2021/12/23 02:34:43;;;;;;;32.10;11.13;;;;;;;21.03;45.92;100093.09;4934757;29;20042;-69
2021/12/23 02:37:09;;;;;;;39.30;11.35;;;;;;;21.15;45.84;100099.41;4935132;29;20031;-69
2021/12/23 02:39:35;;;;;;;35.53;11.40;;;;;;;21.16;45.76;100092.66;4934793;29;20091;-70
2021/12/23 02:42:00;;;;;;;30.90;11.80;;;;;;;21.09;45.75;100084.38;4934996;29;20134;-69
2021/12/23 02:44:26;;;;;;;38.25;10.73;;;;;;;21.04;45.96;100091.91;4935078;29;20032;-69
2021/12/23 02:46:52;;;;;;;29.55;11.38;;;;;;;21.07;45.96;100093.06;4935213;29;20036;-70
2021/12/23 02:49:18;;;;;;;23.48;11.13;;;;;;;21.20;45.84;100093.44;4935067;29;20035;-69
2021/12/23 02:51:44;;;;;;;34.70;10.75;;;;;;;21.15;45.65;100091.06;4934909;29;20490;-69
2021/12/23 02:54:10;;;;;;;29.77;11.68;;;;;;;21.15;45.78;100085.50;4934989;29;20119;-69
2021/12/23 02:56:35;;;;;;;32.63;11.57;;;;;;;21.07;46.13;100087.50;4934835;29;20031;-69
2021/12/23 02:59:01;;;;;;;30.35;10.45;;;;;;;21.12;45.83;100078.78;4934520;29;20418;-73
2021/12/23 03:01:27;;;;;;;31.98;10.60;;;;;;;21.02;46.02;100074.84;4934769;29;20024;-69
2021/12/23 03:03:53;;;;;;;33.28;10.93;;;;;;;21.19;45.67;100069.66;4933473;29;20039;-70
2021/12/23 03:06:20;;;;;;;31.92;10.52;;;;;;;21.17;45.59;100066.47;4933449;29;20471;-70
2021/12/23 03:08:59;;;;;;;26.88;9.90;;;;;;;21.13;45.84;100065.69;4933580;29;20474;-69
2021/12/23 03:11:27;;;;;;;30.00;10.18;;;;;;;21.11;45.84;100071.66;4933550;29;20051;-69
2021/12/23 03:13:53;;;;;;;27.60;11.35;;;;;;;21.22;45.52;100071.59;4934502;29;20150;-69
2021/12/23 03:16:22;;;;;;;29.42;9.40;;;;;;;21.15;45.63;100072.41;4934364;29;20489;-70
2021/12/23 03:18:48;;;;;;;26.92;8.70;;;;;;;21.09;46.07;100062.13;4934359;29;20119;-69
2021/12/23 03:21:14;;;;;;;21.80;8.65;;;;;;;21.05;45.97;100062.13;4934498;29;20127;-69
2021/12/23 03:23:39;;;;;;;18.00;9.18;;;;;;;21.21;45.55;100062.47;4934376;29;20028;-74
2021/12/23 03:26:05;;;;;;;23.05;9.38;;;;;;;21.10;46.01;100061.72;4934387;29;20534;-69
2021/12/23 03:28:32;;;;;;;23.95;8.57;;;;;;;21.14;45.85;100043.06;4933096;29;20074;-70
2021/12/23 03:30:58;;;;;;;24.85;9.43;;;;;;;21.34;45.17;100049.00;4934279;29;20028;-69
2021/12/23 03:33:24;;;;;;;21.00;10.07;;;;;;;21.29;45.27;100052.16;4934280;29;20026;-70
2021/12/23 03:35:49;;;;;;;18.42;8.68;;;;;;;21.01;46.19;100051.03;4934176;29;20036;-70
2021/12/23 03:38:16;;;;;;;23.88;11.15;;;;;;;21.20;45.73;100049.00;4934303;29;20649;-69
2021/12/23 03:40:42;;;;;;;29.60;12.27;;;;;;;21.11;45.88;100045.84;4917125;29;20510;-69
2021/12/23 03:43:11;;;;;;;30.27;10.95;;;;;;;21.28;45.55;100031.94;4934252;29;20024;-69
2021/12/23 03:45:37;;;;;;;29.23;11.10;;;;;;;21.26;45.39;100019.63;4934224;29;20035;-70
2021/12/23 03:48:03;;;;;;;32.67;11.32;;;;;;;21.37;45.18;100027.94;4934213;29;20027;-69
2021/12/23 03:50:29;;;;;;;26.33;11.43;;;;;;;21.16;45.81;100025.97;4934417;29;20042;-69
2021/12/23 03:52:54;;;;;;;39.42;13.20;;;;;;;21.25;45.20;100026.38;4934128;29;20390;-71
2021/12/23 03:55:20;;;;;;;37.53;13.65;;;;;;;;;;4934091;29;20038;-69
2021/12/23 03:57:46;;;;;;;26.30;11.07;;;;;;;21.25;45.36;100020.81;4934020;29;20036;-78
2021/12/23 04:00:17;;;;;;;31.65;11.38;;;;;;;21.31;45.16;100019.22;4933879;29;20031;-69
2021/12/23 04:02:43;;;;;;;32.83;11.07;;;;;;;21.22;45.51;100016.03;4933844;29;20031;-70
2021/12/23 04:05:10;;;;;;;23.65;9.48;;;;;;;21.19;45.69;100011.31;4917120;29;20043;-70
2021/12/23 04:07:38;;;;;;;28.00;11.00;;;;;;;21.18;45.60;100009.72;4933913;29;20034;-69
2021/12/23 04:10:08;;;;;;;28.52;10.70;;;;;;;21.10;45.85;100006.19;4933705;29;20111;-69
2021/12/23 04:12:34;;;;;;;20.73;9.20;;;;;;;21.15;45.62;99994.63;4934283;29;20028;-69
2021/12/23 04:15:00;;;;;;;33.97;11.68;;;;;;;21.09;45.69;100012.16;4933910;29;20147;-69
2021/12/23 04:17:25;;;;;;;27.85;10.30;;;;;;;21.17;45.43;100008.94;4932833;29;20028;-70
2021/12/23 04:19:51;;;;;;;21.38;8.80;;;;;;;21.18;45.53;100004.97;4902789;29;20543;-69
2021/12/23 04:22:16;;;;;;;24.45;9.07;;;;;;;21.07;45.92;100004.19;4895679;29;20036;-77
2021/12/23 04:24:42;;;;;;;25.42;8.85;;;;;;;21.09;45.88;100004.59;4898103;29;20060;-69
2021/12/23 04:27:08;;;;;;;17.88;8.30;;;;;;;21.21;45.52;99995.81;4899059;29;20020;-70
2021/12/23 04:29:35;;;;;;;17.27;7.93;;;;;;;21.18;45.65;99995.84;4899581;29;20029;-70
2021/12/23 04:32:01;;;;;;;18.77;8.20;;;;;;;21.23;45.42;99993.41;4899823;29;20036;-69
2021/12/23 04:34:27;;;;;;;22.33;8.65;;;;;;;21.18;45.60;99985.50;4899611;29;20104;-69
2021/12/23 04:36:53;;;;;;;19.40;9.23;;;;;;;21.30;45.29;99979.53;4899529;29;20036;-69
2021/12/23 04:39:19;;;;;;;20.02;8.50;;;;;;;21.30;45.27;99981.50;4899683;29;20186;-69
2021/12/23 04:41:45;;;;;;;18.05;7.22;;;;;;;20.86;46.44;99980.06;4899337;29;20041;-69
2021/12/23 04:44:12;;;;;;;23.25;9.27;;;;;;;21.21;45.53;99973.59;4899537;29;20066;-69
2021/12/23 04:46:38;;;;;;;22.90;9.30;;;;;;;21.19;45.59;99978.75;4899239;29;20484;-70
2021/12/23 04:49:04;;;;;;;28.88;9.77;;;;;;;21.14;45.77;99981.16;4899227;29;20049;-70
2021/12/23 04:51:30;;;;;;;32.33;10.73;;;;;;;21.23;45.47;99973.16;4899446;29;20115;-70
2021/12/23 04:53:55;;;;;;;40.38;11.18;;;;;;;21.24;45.39;99966.44;4899124;29;20116;-69
2021/12/23 04:56:21;;;;;;;27.85;10.18;;;;;;;21.21;45.62;99953.34;4899052;29;20088;-69
2021/12/23 04:58:46;;;;;;;30.10;10.63;;;;;;;21.31;45.24;99967.25;4899064;29;20028;-69
2021/12/23 05:01:28;;;;;;;33.95;10.88;;;;;;;21.41;45.01;99951.69;4899045;29;20056;-70
2021/12/23 05:03:55;;;;;;;32.63;11.27;;;;;;;21.33;45.09;99950.94;4899216;29;20028;-69
2021/12/23 05:06:20;;;;;;;38.15;12.70;;;;;;;21.42;44.95;99938.59;4898811;29;20068;-69
2021/12/23 05:08:47;;;;;;;25.95;9.75;;;;;;;21.32;45.20;99940.25;4898937;29;20500;-69
2021/12/23 05:11:13;;;;;;;39.05;13.02;;;;;;;21.41;44.75;99940.59;4898667;29;20048;-69
2021/12/23 05:13:39;;;;;;;32.15;12.90;;;;;;;21.33;45.01;99933.47;4898761;29;20031;-69
2021/12/23 05:16:05;;;;;;;33.72;11.65;;;;;;;21.36;44.71;99931.88;4899004;29;20033;-69
2021/12/23 05:18:30;;;;;;;44.60;14.65;;;;;;;21.38;45.01;99923.91;4898859;29;20029;-69
2021/12/23 05:20:56;;;;;;;37.47;12.07;;;;;;;21.21;45.40;99915.25;4898668;29;20115;-70
2021/12/23 05:23:21;;;;;;;36.38;12.48;;;;;;;;;;4898538;29;20036;-73
2021/12/23 05:25:47;;;;;;;46.38;13.20;;;;;;;21.20;45.47;99918.44;4898588;29;20040;-69
2021/12/23 05:28:14;;;;;;;44.50;14.45;;;;;;;21.17;45.51;99908.16;4898572;29;20088;-69
2021/12/23 05:30:40;;;;;;;33.53;11.63;;;;;;;21.18;45.37;99909.72;4898606;29;20039;-69
2021/12/23 05:33:06;;;;;;;38.65;14.43;;;;;;;21.27;45.43;99899.78;4897522;29;20044;-70
2021/12/23 05:35:32;;;;;;;33.55;12.75;;;;;;;21.21;45.74;99895.00;4898279;29;20029;-69
2021/12/23 05:37:58;;;;;;;37.00;12.73;;;;;;;21.21;45.58;99892.22;4898366;29;20037;-70
2021/12/23 05:40:26;;;;;;;36.38;12.73;;;;;;;21.15;45.76;99894.63;4898252;29;20036;-69
2021/12/23 05:42:52;;;;;;;40.00;12.85;;;;;;;21.21;45.78;99893.03;4898283;29;20472;-69
2021/12/23 05:45:19;;;;;;;48.28;12.50;;;;;;;21.22;45.81;99877.94;4898296;29;20036;-69
2021/12/23 05:47:45;;;;;;;36.15;12.27;;;;;;;21.23;45.64;99890.63;4898363;29;20033;-69
2021/12/23 05:50:13;;;;;;;39.65;11.57;;;;;;;21.15;46.02;99888.28;4898307;29;20032;-70
2021/12/23 05:52:39;;;;;;;36.10;11.68;;;;;;;21.00;46.37;99879.25;4898303;29;20028;-77
2021/12/23 05:55:06;;;;;;;35.90;12.43;;;;;;;21.13;46.12;99874.03;4898136;29;20040;-69
2021/12/23 05:57:32;;;;;;;36.78;13.75;;;;;;;21.20;45.89;99885.09;4898109;29;20040;-69
2021/12/23 05:59:58;;;;;;;56.08;15.88;;;;;;;21.21;45.85;99875.56;4898240;29;20039;-69
2021/12/23 06:02:23;;;;;;;43.95;15.13;;;;;;;20.90;46.59;99871.75;4881124;29;20500;-69
2021/12/23 06:04:49;;;;;;;38.47;13.85;;;;;;;20.98;46.33;99865.75;4908889;29;20047;-70
2021/12/23 06:07:15;;;;;;;51.05;15.40;;;;;;;21.05;46.29;99862.16;4916150;29;20039;-69
2021/12/23 06:09:40;;;;;;;35.10;12.98;;;;;;;21.14;46.10;99864.50;4915085;29;20035;-69
2021/12/23 06:12:07;;;;;;;37.38;13.18;;;;;;;21.17;46.05;99869.25;4932745;29;20044;-69
2021/12/23 06:14:32;;;;;;;35.78;12.98;;;;;;;20.96;46.59;99870.94;4933840;29;20032;-76
2021/12/23 06:16:58;;;;;;;45.33;13.65;;;;;;;21.01;46.40;99862.19;4933985;29;20074;-72
2021/12/23 06:19:23;;;;;;;39.00;14.05;;;;;;;21.06;46.18;99856.19;4933852;29;20083;-69
2021/12/23 06:21:49;;;;;;;35.97;12.02;;;;;;;21.23;45.86;99853.72;4934006;29;20032;-71
2021/12/23 06:24:15;;;;;;;45.28;13.93;;;;;;;21.16;45.96;99850.97;4933857;29;20036;-70
2021/12/23 06:26:40;;;;;;;39.50;13.27;;;;;;;21.05;46.09;99846.28;4933625;29;20024;-70
2021/12/23 06:29:06;;;;;;;37.97;12.70;;;;;;;21.08;46.15;99846.66;4933651;29;20102;-69
2021/12/23 06:31:32;;;;;;;50.75;15.20;;;;;;;21.16;45.82;99839.88;4933762;29;20102;-71
2021/12/23 06:33:57;;;;;;;42.78;13.52;;;;;;;21.15;46.02;99843.84;4933789;29;20478;-69
2021/12/23 06:36:23;;;;;;;55.03;15.25;;;;;;;21.22;45.92;99829.91;4933428;29;20490;-70
2021/12/23 06:38:49;;;;;;;34.47;11.57;;;;;;;21.14;46.08;99839.50;4933462;29;20478;-70
2021/12/23 06:41:17;;;;;;;32.58;13.13;;;;;;;21.11;46.24;99837.53;4933389;29;20062;-76
2021/12/23 06:43:43;;;;;;;35.45;11.57;;;;;;;21.22;45.77;99841.03;4933070;29;21489;-69
2021/12/23 06:46:09;;;;;;;40.95;10.77;;;;;;;21.12;46.28;99841.91;4930949;29;20027;-70
2021/12/23 06:48:34;;;;;;;33.08;9.07;;;;;;;21.23;45.97;99834.28;4933397;29;20020;-68
2021/12/23 06:51:00;;;;;;;30.90;9.15;;;;;;;21.34;45.57;99840.59;4933334;29;20079;-68
2021/12/23 06:53:26;;;;;;;22.58;8.18;;;;;;;21.25;46.06;99840.22;4933154;29;20079;-69
2021/12/23 06:55:54;;;;;;;21.67;8.20;;;;;;;21.27;45.83;99835.06;4933037;29;20501;-68
2021/12/23 06:58:20;;;;;;;22.80;7.63;;;;;;;21.25;45.77;99829.91;4933381;29;20027;-70
2021/12/23 07:00:46;;;;;;;20.80;7.18;;;;;;;21.30;45.88;99825.91;4933046;29;20471;-68
2021/12/23 07:03:12;;;;;;;19.35;6.93;;;;;;;21.24;45.99;99824.75;4933144;29;20028;-68
2021/12/23 07:05:38;;;;;;;17.33;6.63;;;;;;;21.27;45.72;99815.59;4933027;29;20027;-69
2021/12/23 07:10:31;;;;;;;15.88;6.20;;;;;;;21.18;46.13;99818.06;4933067;29;20048;-70
2021/12/23 07:12:58;;;;;;;18.80;5.90;;;;;;;21.21;45.99;99800.56;4933028;29;20029;-70
2021/12/23 07:15:25;;;;;;;19.25;6.32;;;;;;;21.23;46.07;99798.16;4930466;29;20035;-75
2021/12/23 07:17:52;;;;;;;14.40;5.43;;;;;;;21.31;45.80;99802.50;4934612;29;20471;-79
2021/12/23 07:20:17;;;;;;;15.95;6.05;;;;;;;;;;4934686;29;20027;-75
2021/12/23 07:22:43;;;;;;;15.98;6.22;;;;;;;21.30;45.83;99804.47;4933619;29;20032;-71
2021/12/23 07:25:09;;;;;;;10.80;5.70;;;;;;;21.20;46.27;99796.19;4932815;29;20032;-74
2021/12/23 07:27:35;;;;;;;13.77;4.78;;;;;;;21.31;46.00;99799.72;4932716;29;20079;-69
2021/12/23 07:30:01;;;;;;;11.32;4.95;;;;;;;21.30;45.84;99796.16;4932656;29;20019;-69
2021/12/23 07:32:27;;;;;;;12.13;5.25;;;;;;;21.35;45.80;99797.72;4932632;29;20031;-70
2021/12/23 07:34:52;;;;;;;10.68;5.63;;;;;;;21.24;45.96;99796.97;4933553;29;20063;-70
2021/12/23 07:37:19;;;;;;;13.32;4.80;;;;;;;21.38;45.72;99791.31;4934487;29;20039;-76
2021/12/23 07:39:45;;;;;;;13.98;4.68;;;;;;;21.30;45.86;99793.38;4934503;29;20028;-70
2021/12/23 07:42:15;;;;;;;13.52;5.75;;;;;;;21.34;45.72;99782.25;4934454;29;20042;-70
2021/12/23 07:44:43;;;;;;;9.18;4.72;;;;;;;21.25;45.93;99782.69;4934436;29;20043;-69
2021/12/23 07:47:10;;;;;;;11.05;5.00;;;;;;;21.34;45.65;99771.13;4934279;29;20055;-70
2021/12/23 07:49:36;;;;;;;13.45;4.93;;;;;;;21.02;46.41;99766.56;4934317;29;20095;-70
2021/12/23 07:52:01;;;;;;;9.63;4.93;;;;;;;20.87;46.65;99765.09;4934249;29;20035;-70
2021/12/23 07:54:27;;;;;;;12.48;5.00;;;;;;;20.95;46.37;99758.28;4934308;29;20039;-78
2021/12/23 07:56:53;;;;;;;14.90;5.43;;;;;;;20.99;46.25;99763.81;4936232;29;20118;-76
2021/12/23 07:59:18;;;;;;;11.60;4.10;;;;;;;20.74;47.05;99750.88;4938367;29;20058;-77
2021/12/23 08:01:44;;;;;;;11.38;3.97;;;;;;;21.00;46.21;99743.97;4938281;29;20479;-69
2021/12/23 08:04:11;;;;;;;9.35;4.20;;;;;;;20.76;46.73;99745.69;4937939;29;20486;-70
2021/12/23 08:06:36;;;;;;;11.30;5.03;;;;;;;21.03;46.11;99743.16;4938148;29;20039;-78
2021/12/23 08:09:03;;;;;;;12.30;5.18;;;;;;;20.82;46.45;99742.50;4935607;29;20031;-70
2021/12/23 08:11:28;;;;;;;11.38;5.25;;;;;;;20.85;46.47;99744.47;4937658;29;20458;-75
2021/12/23 08:13:54;;;;;;;19.10;5.82;;;;;;;20.94;46.21;99747.59;4920898;29;20063;-74
2021/12/23 08:16:19;;;;;;;11.70;5.38;;;;;;;20.79;46.52;99749.66;4919447;29;20128;-69
2021/12/23 08:18:45;;;;;;;13.38;5.18;;;;;;;20.85;46.21;99748.03;4933644;29;20046;-71
2021/12/23 08:21:10;;;;;;;13.80;5.38;;;;;;;20.96;45.77;99759.88;4934875;29;20043;-69
2021/12/23 08:23:36;;;;;;;9.98;3.90;;;;;;;20.75;46.39;99765.53;4935405;29;20031;-68
2021/12/23 08:26:05;;;;;;;14.45;4.63;;;;;;;20.91;46.03;99751.16;4934869;29;20039;-70
2021/12/23 08:28:31;;;;;;;12.17;5.10;;;;;;;20.76;46.12;99748.47;4933547;29;20032;-72
2021/12/23 08:30:58;;;;;;;13.43;4.53;;;;;;;20.78;46.18;99756.41;4936685;29;20032;-69
2021/12/23 08:33:24;;;;;;;11.82;4.72;;;;;;;20.45;47.24;99746.66;4936443;29;20027;-79
2021/12/23 08:35:50;;;;;;;16.63;5.50;;;;;;;20.42;47.27;99753.00;4933398;29;20050;-70
2021/12/23 08:38:16;;;;;;;7.97;4.40;;;;;;;20.54;46.87;99760.09;4936169;29;20035;-72
2021/12/23 08:40:42;;;;;;;11.05;4.03;;;;;;;20.36;47.49;99760.94;4935746;29;20055;-79
2021/12/23 08:43:07;;;;;;;14.05;4.05;;;;;;;20.49;47.07;99767.66;4936104;29;20429;-70
2021/12/23 08:45:34;;;;;;;7.72;4.07;;;;;;;20.28;47.80;99770.50;4932861;29;20040;-73
2021/12/23 08:48:00;;;;;;;12.80;4.47;;;;;;;20.67;46.56;99775.09;4936133;29;20028;-69
2021/12/23 08:50:28;;;;;;;11.57;4.90;;;;;;;20.53;46.95;99781.50;4935847;29;20470;-73
2021/12/23 08:52:54;;;;;;;9.30;3.45;;;;;;;20.68;46.43;99794.13;4935986;29;20028;-77
2021/12/23 08:55:20;;;;;;;8.93;4.25;;;;;;;20.77;46.27;99793.69;4934680;29;20086;-70
2021/12/23 08:57:46;;;;;;;13.50;5.13;;;;;;;20.83;46.30;99789.28;4934276;29;20035;-69
2021/12/23 09:00:15;;;;;;;10.57;4.00;;;;;;;20.92;46.03;99792.41;4934677;29;20043;-69
2021/12/23 09:02:41;;;;;;;11.63;4.77;;;;;;;20.95;46.05;99783.28;4935080;29;20032;-70
2021/12/23 09:05:07;;;;;;;11.13;4.15;;;;;;;21.03;45.88;99786.81;4934981;29;20031;-74
2021/12/23 09:07:33;;;;;;;8.05;3.25;;;;;;;21.11;45.58;99787.53;4931794;29;20027;-75
2021/12/23 09:09:58;;;;;;;7.32;3.25;;;;;;;21.13;45.77;99802.59;4934423;29;20529;-71
2021/12/23 09:12:25;;;;;;;20.33;10.55;;;;;;;21.15;45.76;99807.75;4939290;29;20062;-69
2021/12/23 09:14:51;;;;;;;9.73;3.10;;;;;;;21.11;46.07;99810.56;4946321;29;20150;-69
2021/12/23 09:17:16;;;;;;;9.13;3.50;;;;;;;;;;4938332;29;20114;-69
2021/12/23 09:19:43;;;;;;;8.30;2.83;;;;;;;21.19;45.79;99795.41;4946055;29;20774;-70
2021/12/23 09:22:09;;;;;;;11.57;4.47;;;;;;;21.30;45.67;99795.34;4943948;29;20028;-70
2021/12/23 09:24:37;;;;;;;8.20;3.42;;;;;;;21.41;45.32;99811.97;4947005;29;20490;-70
2021/12/23 09:28:09;;;;;;;13.70;3.88;;;;;;;21.43;45.49;99821.47;4944306;29;20027;-70
2021/12/23 09:32:52;;;;;;;9.98;4.45;;;;;;;21.46;45.39;99817.06;4936370;29;20439;-69
2021/12/23 09:35:21;;;;;;;7.65;3.42;;;;;;;21.48;45.39;99800.78;4935998;29;20376;-69
2021/12/23 09:37:46;;;;;;;14.05;4.32;;;;;;;21.44;45.93;99806.38;4941371;29;20023;-73
2021/12/23 09:40:12;;;;;;;10.35;3.42;;;;;;;21.32;45.93;99807.66;4954244;29;20023;-69
2021/12/23 09:42:41;;;;;;;9.95;3.70;;;;;;;21.50;45.62;99812.28;4932400;29;20023;-69
2021/12/23 09:45:11;;;;;;;8.30;3.63;;;;;;;21.53;45.48;99806.69;4936240;29;20031;-77
2021/12/23 09:47:37;;;;;;;10.07;3.90;;;;;;;21.48;45.67;99812.69;4936357;29;20032;-77
2021/12/23 09:50:07;;;;;;;7.05;2.72;;;;;;;21.57;45.48;99821.34;4935950;29;20482;-68
2021/12/23 09:52:38;;;;;;;12.85;3.97;;;;;;;21.62;45.29;99820.13;4936269;29;20123;-68
2021/12/23 09:55:06;;;;;;;11.82;3.67;;;;;;;21.67;45.42;99824.44;4936079;29;20036;-73
2021/12/23 09:57:32;;;;;;;14.73;4.55;;;;;;;21.71;45.17;99820.44;4937657;29;20075;-78
2021/12/23 09:59:59;;;;;;;10.73;4.63;;;;;;;21.71;45.24;99817.66;4936429;29;20027;-69
2021/12/23 10:02:24;;;;;;;9.88;4.63;;;;;;;21.76;45.22;99819.19;4942122;29;20047;-69
2021/12/23 10:04:50;;;;;;;11.02;4.88;;;;;;;21.79;45.34;99821.97;4935515;29;20035;-70
2021/12/23 10:07:17;;;;;;;11.82;4.05;;;;;;;21.79;45.16;99816.41;4937792;29;20050;-73
2021/12/23 10:10:00;;;;;;;12.77;5.18;;;;;;;21.79;45.20;99810.06;4939572;29;20039;-68
2021/12/23 10:31:52;;;;;;;7.55;3.70;;;;;;;21.97;45.38;99874.63;4923186;29;20569;-71
2021/12/23 10:39:51;;;;;;;10.88;3.20;;;;;;;22.01;45.49;99878.19;4937047;29;20074;-69
2021/12/23 10:42:23;;;;;;;10.98;3.28;;;;;;;22.10;45.41;99881.28;4943323;29;20043;-69
2021/12/23 10:44:55;;;;;;;10.93;2.75;;;;;;;22.22;44.99;99870.84;4942427;29;20090;-69
2021/12/23 10:47:30;;;;;;;10.63;2.50;;;;;;;22.16;45.50;99862.19;4945940;29;20074;-69
2021/12/23 10:50:12;;;;;;;11.07;2.60;;;;;;;22.31;44.88;99863.59;4917979;29;20275;-69
2021/12/23 10:52:48;;;;;;;14.50;3.15;;;;;;;22.27;45.12;99862.84;4918163;29;20043;-69
2021/12/23 10:58:10;;;;;;;11.10;3.28;;;;;;;22.42;44.98;99872.63;4939348;29;20046;-77
2021/12/23 11:00:40;;;;;;;12.20;3.05;;;;;;;22.46;44.88;99882.94;4943729;29;20027;-72
2021/12/23 11:06:47;;;;;;;8.60;2.42;;;;;;;22.23;45.57;99900.28;4940057;29;20019;-69
2021/12/23 11:27:23;;;;;;;3.25;1.27;;;;;;;21.53;46.98;99903.16;4931803;29;20048;-79
2021/12/23 11:30:13;;;;;;;3.22;1.67;;;;;;;22.18;45.07;99890.38;4931331;29;20106;-69
2021/12/23 11:37:52;;;;;;;4.75;1.25;;;;;;;22.09;44.70;99909.53;4932199;29;20083;-75
2021/12/23 11:45:51;;;;;;;5.38;1.10;;;;;;;22.09;44.01;99901.97;4895627;29;20054;-72
2021/12/23 11:48:17;;;;;;;5.88;1.50;;;;;;;22.13;44.08;99908.28;4935105;29;20055;-70
2021/12/23 11:51:01;;;;;;;7.30;1.23;;;;;;;22.12;43.92;99906.72;4922471;29;20059;-71
2021/12/23 11:53:27;;;;;;;2.83;1.63;;;;;;;22.07;43.91;99903.56;4921001;29;20072;-70
2021/12/23 11:55:53;;;;;;;3.22;1.95;;;;;;;21.89;44.20;99914.81;4934818;29;20434;-69
2021/12/23 11:58:24;;;;;;;16.55;12.35;;;;;;;21.98;43.81;99923.50;4934871;29;20483;-69
2021/12/23 12:01:06;;;;;;;7.85;2.53;;;;;;;21.88;43.77;99924.38;4934957;29;20119;-69
2021/12/23 12:03:38;;;;;;;114.55;90.00;;;;;;;21.92;43.90;99930.72;4933801;29;20104;-69
2021/12/23 12:06:18;;;;;;;29.13;20.08;;;;;;;22.19;43.46;99944.00;4927542;29;20090;-68
2021/12/23 12:08:44;;;;;;;;;;;;;;;22.12;43.45;99937.31;4935291;29;20035;-69
2021/12/23 12:11:18;;;;;;;13.40;12.18;;;;;;;22.15;43.18;99938.50;4923801;29;19930;-68
2021/12/23 12:13:45;;;;;;;6.32;2.83;;;;;;;22.32;42.83;99936.75;4915781;29;20092;-72
2021/12/23 12:16:31;;;;;;;3.38;1.30;;;;;;;22.29;43.06;99941.16;4915661;29;20036;-68
2021/12/23 12:18:58;;;;;;;3.85;1.35;;;;;;;22.41;42.77;99940.63;4915803;29;20103;-68
2021/12/23 12:21:28;;;;;;;5.60;1.50;;;;;;;22.43;42.81;99937.41;4908922;29;20123;-70
2021/12/23 12:24:13;;;;;;;5.18;2.00;;;;;;;22.39;42.82;99942.25;4899574;29;20056;-70
2021/12/23 12:26:58;;;;;;;4.78;1.30;;;;;;;22.49;42.68;99933.00;4896825;29;20033;-68
2021/12/23 12:29:37;;;;;;;8.35;2.58;;;;;;;22.63;42.41;99940.41;4896989;29;20045;-68
2021/12/23 12:32:05;;;;;;;7.07;2.13;;;;;;;22.75;42.48;99927.94;4896599;29;20036;-68
2021/12/23 12:34:34;;;;;;;6.93;2.28;;;;;;;22.90;42.29;99932.19;4896497;29;20064;-78
2021/12/23 12:37:01;;;;;;;10.57;2.05;;;;;;;22.89;42.46;99938.94;4910131;29;20036;-69